sensor_id;sensor_type;location;lat;lon;timestamp;temperature;humidity
16823;DHT22;8528;49.976;11.858;2023-06-19T00:02:02;15.50;99.90
16823;DHT22;8528;49.976;11.858;2023-06-19T00:04:30;15.40;99.90
16823;DHT22;8528;49.976;11.858;2023-06-19T00:06:57;15.40;99.90
16823;DHT22;8528;49.976;11.858;2023-06-19T00:09:24;15.40;99.90
16823;DHT22;8528;49.976;11.858;2023-06-19T00:11:51;15.40;99.90
16823;DHT22;8528;49.976;11.858;2023-06-19T00:14:18;15.40;99.90
16823;DHT22;8528;49.976;11.858;2023-06-19T00:16:45;15.30;99.90
16823;DHT22;8528;49.976;11.858;2023-06-19T00:19:12;15.30;99.90
16823;DHT22;8528;49.976;11.858;2023-06-19T00:21:39;15.30;99.90
16823;DHT22;8528;49.976;11.858;2023-06-19T00:24:06;15.20;99.90
16823;DHT22;8528;49.976;11.858;2023-06-19T00:26:33;15.20;99.90
16823;DHT22;8528;49.976;11.858;2023-06-19T00:29:01;15.10;99.90
16823;DHT22;8528;49.976;11.858;2023-06-19T00:31:27;15.10;99.90
16823;DHT22;8528;49.976;11.858;2023-06-19T00:33:54;15.10;99.90
16823;DHT22;8528;49.976;11.858;2023-06-19T00:36:21;15.00;99.90
16823;DHT22;8528;49.976;11.858;2023-06-19T00:38:50;15.00;99.90
16823;DHT22;8528;49.976;11.858;2023-06-19T00:41:17;15.00;99.90
16823;DHT22;8528;49.976;11.858;2023-06-19T00:43:44;15.00;99.90
16823;DHT22;8528;49.976;11.858;2023-06-19T00:46:12;15.10;99.90
16823;DHT22;8528;49.976;11.858;2023-06-19T00:48:39;15.10;99.90
16823;DHT22;8528;49.976;11.858;2023-06-19T00:51:06;15.20;99.90
16823;DHT22;8528;49.976;11.858;2023-06-19T00:53:33;15.20;99.90
16823;DHT22;8528;49.976;11.858;2023-06-19T00:56:01;15.10;99.90
16823;DHT22;8528;49.976;11.858;2023-06-19T00:58:30;15.20;99.90
16823;DHT22;8528;49.976;11.858;2023-06-19T01:00:58;15.10;99.90
16823;DHT22;8528;49.976;11.858;2023-06-19T01:03:35;15.20;99.90
16823;DHT22;8528;49.976;11.858;2023-06-19T01:06:09;15.30;99.90
16823;DHT22;8528;49.976;11.858;2023-06-19T01:08:42;15.30;99.90
16823;DHT22;8528;49.976;11.858;2023-06-19T01:11:11;15.30;99.90
16823;DHT22;8528;49.976;11.858;2023-06-19T01:13:56;15.40;99.90
16823;DHT22;8528;49.976;11.858;2023-06-19T01:16:27;15.40;99.90
16823;DHT22;8528;49.976;11.858;2023-06-19T01:18:54;15.40;99.90
16823;DHT22;8528;49.976;11.858;2023-06-19T01:21:22;15.40;99.90
16823;DHT22;8528;49.976;11.858;2023-06-19T01:23:49;15.30;99.90
16823;DHT22;8528;49.976;11.858;2023-06-19T01:26:16;15.30;99.90
16823;DHT22;8528;49.976;11.858;2023-06-19T01:28:45;15.30;99.90
16823;DHT22;8528;49.976;11.858;2023-06-19T01:31:20;15.30;99.90
16823;DHT22;8528;49.976;11.858;2023-06-19T01:33:49;15.40;99.90
16823;DHT22;8528;49.976;11.858;2023-06-19T01:36:19;15.30;99.90
16823;DHT22;8528;49.976;11.858;2023-06-19T01:38:48;15.30;99.90
16823;DHT22;8528;49.976;11.858;2023-06-19T01:41:16;15.30;99.90
16823;DHT22;8528;49.976;11.858;2023-06-19T01:43:45;15.30;99.90
16823;DHT22;8528;49.976;11.858;2023-06-19T01:46:13;15.30;99.90
16823;DHT22;8528;49.976;11.858;2023-06-19T01:48:40;15.40;99.90
16823;DHT22;8528;49.976;11.858;2023-06-19T01:51:06;15.40;99.90
16823;DHT22;8528;49.976;11.858;2023-06-19T01:53:34;15.40;99.90
16823;DHT22;8528;49.976;11.858;2023-06-19T01:56:03;15.40;99.90
16823;DHT22;8528;49.976;11.858;2023-06-19T01:58:30;15.50;99.90
16823;DHT22;8528;49.976;11.858;2023-06-19T02:00:57;15.40;99.90
16823;DHT22;8528;49.976;11.858;2023-06-19T02:03:24;15.40;99.90
16823;DHT22;8528;49.976;11.858;2023-06-19T02:05:52;15.40;99.90
16823;DHT22;8528;49.976;11.858;2023-06-19T02:08:19;15.30;99.90
16823;DHT22;8528;49.976;11.858;2023-06-19T02:10:46;15.40;99.90
16823;DHT22;8528;49.976;11.858;2023-06-19T02:13:13;15.40;99.90
16823;DHT22;8528;49.976;11.858;2023-06-19T02:15:40;15.40;99.90
16823;DHT22;8528;49.976;11.858;2023-06-19T02:18:08;15.40;99.90
16823;DHT22;8528;49.976;11.858;2023-06-19T02:20:35;15.40;99.90
16823;DHT22;8528;49.976;11.858;2023-06-19T02:23:01;15.40;99.90
16823;DHT22;8528;49.976;11.858;2023-06-19T02:25:29;15.50;99.90
16823;DHT22;8528;49.976;11.858;2023-06-19T02:27:56;15.50;99.90
16823;DHT22;8528;49.976;11.858;2023-06-19T02:30:23;15.50;99.90
16823;DHT22;8528;49.976;11.858;2023-06-19T02:32:50;15.50;99.90
16823;DHT22;8528;49.976;11.858;2023-06-19T02:35:17;15.50;99.90
16823;DHT22;8528;49.976;11.858;2023-06-19T02:37:44;15.50;99.90
16823;DHT22;8528;49.976;11.858;2023-06-19T02:40:13;15.50;99.90
16823;DHT22;8528;49.976;11.858;2023-06-19T02:42:41;15.60;99.90
16823;DHT22;8528;49.976;11.858;2023-06-19T02:45:08;15.60;99.90
16823;DHT22;8528;49.976;11.858;2023-06-19T02:47:35;15.60;99.90
16823;DHT22;8528;49.976;11.858;2023-06-19T02:50:03;15.60;99.90
16823;DHT22;8528;49.976;11.858;2023-06-19T02:52:30;15.60;99.90
16823;DHT22;8528;49.976;11.858;2023-06-19T02:54:57;15.60;99.90
16823;DHT22;8528;49.976;11.858;2023-06-19T02:57:24;15.60;99.90
16823;DHT22;8528;49.976;11.858;2023-06-19T02:59:51;15.60;99.90
16823;DHT22;8528;49.976;11.858;2023-06-19T03:02:18;15.60;99.90
16823;DHT22;8528;49.976;11.858;2023-06-19T03:04:45;15.60;99.90
16823;DHT22;8528;49.976;11.858;2023-06-19T03:07:12;15.60;99.90
16823;DHT22;8528;49.976;11.858;2023-06-19T03:09:40;15.60;99.90
16823;DHT22;8528;49.976;11.858;2023-06-19T03:12:08;15.60;99.90
16823;DHT22;8528;49.976;11.858;2023-06-19T03:14:35;15.60;99.90
16823;DHT22;8528;49.976;11.858;2023-06-19T03:17:02;15.60;99.90
16823;DHT22;8528;49.976;11.858;2023-06-19T03:19:30;15.70;99.90
16823;DHT22;8528;49.976;11.858;2023-06-19T03:21:57;15.50;99.90
16823;DHT22;8528;49.976;11.858;2023-06-19T03:24:24;15.50;99.90
16823;DHT22;8528;49.976;11.858;2023-06-19T03:26:53;15.50;99.90
16823;DHT22;8528;49.976;11.858;2023-06-19T03:29:20;15.50;99.90
16823;DHT22;8528;49.976;11.858;2023-06-19T03:31:49;15.50;99.90
16823;DHT22;8528;49.976;11.858;2023-06-19T03:34:16;15.40;99.90
16823;DHT22;8528;49.976;11.858;2023-06-19T03:36:43;15.30;99.90
16823;DHT22;8528;49.976;11.858;2023-06-19T03:39:10;15.30;99.90
16823;DHT22;8528;49.976;11.858;2023-06-19T03:41:38;15.30;99.90
16823;DHT22;8528;49.976;11.858;2023-06-19T03:44:05;15.30;99.90
16823;DHT22;8528;49.976;11.858;2023-06-19T03:46:32;15.40;99.90
16823;DHT22;8528;49.976;11.858;2023-06-19T03:48:59;15.40;99.90
16823;DHT22;8528;49.976;11.858;2023-06-19T03:51:26;15.50;99.90
16823;DHT22;8528;49.976;11.858;2023-06-19T03:53:53;15.50;99.90
16823;DHT22;8528;49.976;11.858;2023-06-19T03:56:19;15.60;99.90
16823;DHT22;8528;49.976;11.858;2023-06-19T03:58:46;15.60;99.90
16823;DHT22;8528;49.976;11.858;2023-06-19T04:01:13;15.70;99.90
16823;DHT22;8528;49.976;11.858;2023-06-19T04:03:40;15.80;99.90
16823;DHT22;8528;49.976;11.858;2023-06-19T04:06:08;15.80;99.90
16823;DHT22;8528;49.976;11.858;2023-06-19T04:08:35;15.80;99.90
16823;DHT22;8528;49.976;11.858;2023-06-19T04:11:01;15.80;99.90
16823;DHT22;8528;49.976;11.858;2023-06-19T04:13:28;15.80;99.90
16823;DHT22;8528;49.976;11.858;2023-06-19T04:15:55;15.80;99.90
16823;DHT22;8528;49.976;11.858;2023-06-19T04:18:22;15.90;99.90
16823;DHT22;8528;49.976;11.858;2023-06-19T04:20:49;15.90;99.90
16823;DHT22;8528;49.976;11.858;2023-06-19T04:23:16;16.00;99.90
16823;DHT22;8528;49.976;11.858;2023-06-19T04:25:43;16.00;99.90
16823;DHT22;8528;49.976;11.858;2023-06-19T04:28:10;16.10;99.90
16823;DHT22;8528;49.976;11.858;2023-06-19T04:30:37;16.30;99.90
16823;DHT22;8528;49.976;11.858;2023-06-19T04:33:06;16.40;99.90
16823;DHT22;8528;49.976;11.858;2023-06-19T04:35:34;16.60;99.90
16823;DHT22;8528;49.976;11.858;2023-06-19T04:38:07;16.70;99.90
16823;DHT22;8528;49.976;11.858;2023-06-19T04:40:35;16.80;99.90
16823;DHT22;8528;49.976;11.858;2023-06-19T04:43:02;16.90;99.90
16823;DHT22;8528;49.976;11.858;2023-06-19T04:45:29;16.90;99.90
16823;DHT22;8528;49.976;11.858;2023-06-19T04:47:56;17.00;99.90
16823;DHT22;8528;49.976;11.858;2023-06-19T04:50:23;17.10;99.90
16823;DHT22;8528;49.976;11.858;2023-06-19T04:52:50;17.10;99.90
16823;DHT22;8528;49.976;11.858;2023-06-19T04:55:18;17.20;99.90
16823;DHT22;8528;49.976;11.858;2023-06-19T04:57:45;17.20;99.90
16823;DHT22;8528;49.976;11.858;2023-06-19T05:00:12;17.20;99.90
16823;DHT22;8528;49.976;11.858;2023-06-19T05:02:46;17.20;99.90
16823;DHT22;8528;49.976;11.858;2023-06-19T05:05:14;17.20;99.90
16823;DHT22;8528;49.976;11.858;2023-06-19T05:07:41;17.30;99.90
16823;DHT22;8528;49.976;11.858;2023-06-19T05:10:09;17.50;99.90
16823;DHT22;8528;49.976;11.858;2023-06-19T05:12:37;17.70;99.90
16823;DHT22;8528;49.976;11.858;2023-06-19T05:15:04;17.80;99.90
16823;DHT22;8528;49.976;11.858;2023-06-19T05:17:31;18.30;99.90
16823;DHT22;8528;49.976;11.858;2023-06-19T05:19:58;19.10;99.90
16823;DHT22;8528;49.976;11.858;2023-06-19T05:22:25;19.90;99.90
16823;DHT22;8528;49.976;11.858;2023-06-19T05:24:53;20.20;99.90
16823;DHT22;8528;49.976;11.858;2023-06-19T05:27:20;20.30;99.90
16823;DHT22;8528;49.976;11.858;2023-06-19T05:29:47;20.30;99.90
16823;DHT22;8528;49.976;11.858;2023-06-19T05:32:14;20.20;99.90
16823;DHT22;8528;49.976;11.858;2023-06-19T05:34:41;20.10;99.90
16823;DHT22;8528;49.976;11.858;2023-06-19T05:37:08;20.00;99.90
16823;DHT22;8528;49.976;11.858;2023-06-19T05:39:35;20.10;99.90
16823;DHT22;8528;49.976;11.858;2023-06-19T05:42:01;20.10;99.90
16823;DHT22;8528;49.976;11.858;2023-06-19T05:44:28;20.40;99.90
16823;DHT22;8528;49.976;11.858;2023-06-19T05:46:55;21.00;99.90
16823;DHT22;8528;49.976;11.858;2023-06-19T05:49:22;21.40;99.90
16823;DHT22;8528;49.976;11.858;2023-06-19T05:51:49;21.80;99.90
16823;DHT22;8528;49.976;11.858;2023-06-19T05:54:16;22.40;99.90
16823;DHT22;8528;49.976;11.858;2023-06-19T05:56:44;22.80;99.90
16823;DHT22;8528;49.976;11.858;2023-06-19T05:59:11;22.50;92.60
16823;DHT22;8528;49.976;11.858;2023-06-19T06:01:41;22.30;94.70
16823;DHT22;8528;49.976;11.858;2023-06-19T06:04:08;22.20;91.90
16823;DHT22;8528;49.976;11.858;2023-06-19T06:06:35;22.40;90.60
16823;DHT22;8528;49.976;11.858;2023-06-19T06:09:02;23.30;92.60
16823;DHT22;8528;49.976;11.858;2023-06-19T06:11:30;24.10;76.10
16823;DHT22;8528;49.976;11.858;2023-06-19T06:13:56;24.80;70.10
16823;DHT22;8528;49.976;11.858;2023-06-19T06:16:23;25.90;64.70
16823;DHT22;8528;49.976;11.858;2023-06-19T06:18:50;26.50;62.10
16823;DHT22;8528;49.976;11.858;2023-06-19T06:21:17;26.70;59.80
16823;DHT22;8528;49.976;11.858;2023-06-19T06:23:44;26.60;59.40
16823;DHT22;8528;49.976;11.858;2023-06-19T06:26:11;26.10;58.70
16823;DHT22;8528;49.976;11.858;2023-06-19T06:28:38;25.60;58.70
16823;DHT22;8528;49.976;11.858;2023-06-19T06:31:06;25.70;59.80
16823;DHT22;8528;49.976;11.858;2023-06-19T06:33:33;25.80;59.00
16823;DHT22;8528;49.976;11.858;2023-06-19T06:36:00;25.70;59.30
16823;DHT22;8528;49.976;11.858;2023-06-19T06:38:27;25.90;59.40
16823;DHT22;8528;49.976;11.858;2023-06-19T06:40:54;26.30;58.90
16823;DHT22;8528;49.976;11.858;2023-06-19T06:43:21;26.10;58.40
16823;DHT22;8528;49.976;11.858;2023-06-19T06:45:48;25.50;59.40
16823;DHT22;8528;49.976;11.858;2023-06-19T06:48:18;25.00;61.00
16823;DHT22;8528;49.976;11.858;2023-06-19T06:50:45;24.30;63.20
16823;DHT22;8528;49.976;11.858;2023-06-19T06:53:12;23.90;64.10
16823;DHT22;8528;49.976;11.858;2023-06-19T06:55:38;23.90;64.90
16823;DHT22;8528;49.976;11.858;2023-06-19T06:58:06;24.40;64.50
16823;DHT22;8528;49.976;11.858;2023-06-19T07:00:32;25.50;60.60
16823;DHT22;8528;49.976;11.858;2023-06-19T07:02:59;26.20;59.90
16823;DHT22;8528;49.976;11.858;2023-06-19T07:05:27;27.60;56.80
16823;DHT22;8528;49.976;11.858;2023-06-19T07:07:55;28.70;56.10
16823;DHT22;8528;49.976;11.858;2023-06-19T07:10:22;29.80;52.80
16823;DHT22;8528;49.976;11.858;2023-06-19T07:12:50;30.40;52.00
16823;DHT22;8528;49.976;11.858;2023-06-19T07:15:18;30.40;52.70
16823;DHT22;8528;49.976;11.858;2023-06-19T07:17:45;30.40;50.90
16823;DHT22;8528;49.976;11.858;2023-06-19T07:20:13;30.90;49.90
16823;DHT22;8528;49.976;11.858;2023-06-19T07:22:42;31.20;49.60
16823;DHT22;8528;49.976;11.858;2023-06-19T07:25:10;30.40;50.00
16823;DHT22;8528;49.976;11.858;2023-06-19T07:27:38;29.30;52.10
16823;DHT22;8528;49.976;11.858;2023-06-19T07:30:05;28.60;53.10
16823;DHT22;8528;49.976;11.858;2023-06-19T07:32:32;27.80;53.90
16823;DHT22;8528;49.976;11.858;2023-06-19T07:34:59;27.10;56.20
16823;DHT22;8528;49.976;11.858;2023-06-19T07:37:26;27.20;56.50
16823;DHT22;8528;49.976;11.858;2023-06-19T07:39:53;28.00;55.00
16823;DHT22;8528;49.976;11.858;2023-06-19T07:42:20;29.30;53.40
16823;DHT22;8528;49.976;11.858;2023-06-19T07:44:47;30.30;51.20
16823;DHT22;8528;49.976;11.858;2023-06-19T07:47:15;31.00;49.50
16823;DHT22;8528;49.976;11.858;2023-06-19T07:49:42;31.50;48.50
16823;DHT22;8528;49.976;11.858;2023-06-19T07:52:09;31.80;47.80
16823;DHT22;8528;49.976;11.858;2023-06-19T07:54:47;32.60;46.20
16823;DHT22;8528;49.976;11.858;2023-06-19T07:57:13;32.90;46.30
16823;DHT22;8528;49.976;11.858;2023-06-19T07:59:40;33.90;44.40
16823;DHT22;8528;49.976;11.858;2023-06-19T08:02:07;35.00;42.80
16823;DHT22;8528;49.976;11.858;2023-06-19T08:04:34;35.70;42.90
16823;DHT22;8528;49.976;11.858;2023-06-19T08:07:01;35.30;41.70
16823;DHT22;8528;49.976;11.858;2023-06-19T08:09:28;34.30;43.30
16823;DHT22;8528;49.976;11.858;2023-06-19T08:11:55;33.00;44.80
16823;DHT22;8528;49.976;11.858;2023-06-19T08:14:22;31.90;46.80
16823;DHT22;8528;49.976;11.858;2023-06-19T08:16:48;30.40;48.90
16823;DHT22;8528;49.976;11.858;2023-06-19T08:19:15;29.00;51.40
16823;DHT22;8528;49.976;11.858;2023-06-19T08:21:43;28.00;53.60
16823;DHT22;8528;49.976;11.858;2023-06-19T08:24:09;27.20;55.80
16823;DHT22;8528;49.976;11.858;2023-06-19T08:26:36;26.70;56.50
16823;DHT22;8528;49.976;11.858;2023-06-19T08:29:03;26.20;58.10
16823;DHT22;8528;49.976;11.858;2023-06-19T08:31:30;25.80;58.70
16823;DHT22;8528;49.976;11.858;2023-06-19T08:33:57;25.50;60.40
16823;DHT22;8528;49.976;11.858;2023-06-19T08:36:24;25.40;60.90
16823;DHT22;8528;49.976;11.858;2023-06-19T08:38:51;25.40;61.30
16823;DHT22;8528;49.976;11.858;2023-06-19T08:41:19;25.20;62.10
16823;DHT22;8528;49.976;11.858;2023-06-19T08:43:46;25.10;61.90
16823;DHT22;8528;49.976;11.858;2023-06-19T08:46:18;25.00;64.20
16823;DHT22;8528;49.976;11.858;2023-06-19T08:48:45;25.00;65.20
16823;DHT22;8528;49.976;11.858;2023-06-19T08:51:12;25.20;64.60
16823;DHT22;8528;49.976;11.858;2023-06-19T08:53:54;25.40;63.70
16823;DHT22;8528;49.976;11.858;2023-06-19T08:56:21;25.40;63.50
16823;DHT22;8528;49.976;11.858;2023-06-19T08:58:48;25.40;63.40
16823;DHT22;8528;49.976;11.858;2023-06-19T09:01:18;25.40;63.80
16823;DHT22;8528;49.976;11.858;2023-06-19T09:03:46;25.40;64.80
16823;DHT22;8528;49.976;11.858;2023-06-19T09:06:17;25.40;64.10
16823;DHT22;8528;49.976;11.858;2023-06-19T09:08:45;25.60;63.70
16823;DHT22;8528;49.976;11.858;2023-06-19T09:14:56;26.20;63.40
16823;DHT22;8528;49.976;11.858;2023-06-19T09:17:31;26.60;62.70
16823;DHT22;8528;49.976;11.858;2023-06-19T09:20:01;26.90;61.60
16823;DHT22;8528;49.976;11.858;2023-06-19T09:22:31;27.20;60.00
16823;DHT22;8528;49.976;11.858;2023-06-19T09:25:00;27.30;59.90
16823;DHT22;8528;49.976;11.858;2023-06-19T09:27:33;27.40;59.80
16823;DHT22;8528;49.976;11.858;2023-06-19T09:30:00;27.40;59.60
16823;DHT22;8528;49.976;11.858;2023-06-19T09:32:28;27.40;59.40
16823;DHT22;8528;49.976;11.858;2023-06-19T09:34:56;27.30;59.50
16823;DHT22;8528;49.976;11.858;2023-06-19T09:37:27;27.50;60.00
16823;DHT22;8528;49.976;11.858;2023-06-19T09:42:31;28.10;58.80
16823;DHT22;8528;49.976;11.858;2023-06-19T09:45:03;28.10;58.20
16823;DHT22;8528;49.976;11.858;2023-06-19T09:47:42;28.10;58.10
16823;DHT22;8528;49.976;11.858;2023-06-19T09:50:14;28.20;58.80
16823;DHT22;8528;49.976;11.858;2023-06-19T09:52:43;28.80;58.10
16823;DHT22;8528;49.976;11.858;2023-06-19T09:55:13;29.10;56.40
16823;DHT22;8528;49.976;11.858;2023-06-19T09:57:42;29.50;56.40
16823;DHT22;8528;49.976;11.858;2023-06-19T10:00:10;29.80;55.00
16823;DHT22;8528;49.976;11.858;2023-06-19T10:02:41;29.90;55.10
16823;DHT22;8528;49.976;11.858;2023-06-19T10:05:09;30.10;54.50
16823;DHT22;8528;49.976;11.858;2023-06-19T10:07:43;30.70;52.90
16823;DHT22;8528;49.976;11.858;2023-06-19T10:10:22;30.70;53.10
16823;DHT22;8528;49.976;11.858;2023-06-19T10:12:50;30.40;54.10
16823;DHT22;8528;49.976;11.858;2023-06-19T10:15:25;30.30;54.60
16823;DHT22;8528;49.976;11.858;2023-06-19T10:18:03;30.40;54.60
16823;DHT22;8528;49.976;11.858;2023-06-19T10:20:32;30.10;54.60
16823;DHT22;8528;49.976;11.858;2023-06-19T10:23:10;29.80;55.00
16823;DHT22;8528;49.976;11.858;2023-06-19T10:25:40;29.60;55.70
16823;DHT22;8528;49.976;11.858;2023-06-19T10:28:25;29.10;55.90
16823;DHT22;8528;49.976;11.858;2023-06-19T10:30:57;28.00;56.90
16823;DHT22;8528;49.976;11.858;2023-06-19T10:33:26;27.30;59.00
16823;DHT22;8528;49.976;11.858;2023-06-19T10:35:53;26.50;60.80
16823;DHT22;8528;49.976;11.858;2023-06-19T10:38:20;25.90;63.60
16823;DHT22;8528;49.976;11.858;2023-06-19T10:40:48;25.40;64.50
16823;DHT22;8528;49.976;11.858;2023-06-19T10:43:22;25.00;66.50
16823;DHT22;8528;49.976;11.858;2023-06-19T10:45:51;24.80;67.50
16823;DHT22;8528;49.976;11.858;2023-06-19T10:48:20;24.60;68.20
16823;DHT22;8528;49.976;11.858;2023-06-19T10:50:48;24.70;69.50
16823;DHT22;8528;49.976;11.858;2023-06-19T10:53:29;24.90;68.10
16823;DHT22;8528;49.976;11.858;2023-06-19T10:56:01;25.20;66.20
16823;DHT22;8528;49.976;11.858;2023-06-19T10:58:29;25.50;66.10
16823;DHT22;8528;49.976;11.858;2023-06-19T11:00:56;25.80;65.70
16823;DHT22;8528;49.976;11.858;2023-06-19T11:03:23;26.30;63.90
16823;DHT22;8528;49.976;11.858;2023-06-19T11:05:50;27.10;61.50
16823;DHT22;8528;49.976;11.858;2023-06-19T11:08:23;28.00;59.60
16823;DHT22;8528;49.976;11.858;2023-06-19T11:10:50;28.60;57.80
16823;DHT22;8528;49.976;11.858;2023-06-19T11:13:19;29.70;56.30
16823;DHT22;8528;49.976;11.858;2023-06-19T11:15:50;29.70;55.80
16823;DHT22;8528;49.976;11.858;2023-06-19T11:18:18;29.60;55.50
16823;DHT22;8528;49.976;11.858;2023-06-19T11:20:50;29.90;54.70
16823;DHT22;8528;49.976;11.858;2023-06-19T11:23:29;30.10;53.50
16823;DHT22;8528;49.976;11.858;2023-06-19T11:26:05;30.10;54.10
16823;DHT22;8528;49.976;11.858;2023-06-19T11:28:33;31.50;53.40
16823;DHT22;8528;49.976;11.858;2023-06-19T11:31:03;33.70;48.50
16823;DHT22;8528;49.976;11.858;2023-06-19T11:33:30;35.30;45.20
16823;DHT22;8528;49.976;11.858;2023-06-19T11:36:00;36.00;44.40
16823;DHT22;8528;49.976;11.858;2023-06-19T11:38:27;36.70;42.40
16823;DHT22;8528;49.976;11.858;2023-06-19T11:40:55;37.30;42.40
16823;DHT22;8528;49.976;11.858;2023-06-19T11:43:30;37.70;41.70
16823;DHT22;8528;49.976;11.858;2023-06-19T11:46:05;38.90;40.80
16823;DHT22;8528;49.976;11.858;2023-06-19T11:48:36;40.80;39.40
16823;DHT22;8528;49.976;11.858;2023-06-19T11:51:03;41.80;37.50
16823;DHT22;8528;49.976;11.858;2023-06-19T11:53:30;41.20;37.20
16823;DHT22;8528;49.976;11.858;2023-06-19T11:55:57;40.00;37.60
16823;DHT22;8528;49.976;11.858;2023-06-19T11:58:24;39.20;38.80
16823;DHT22;8528;49.976;11.858;2023-06-19T12:00:53;37.90;40.20
16823;DHT22;8528;49.976;11.858;2023-06-19T12:03:20;36.90;41.40
16823;DHT22;8528;49.976;11.858;2023-06-19T12:05:47;36.40;42.70
16823;DHT22;8528;49.976;11.858;2023-06-19T12:08:14;36.00;43.70
16823;DHT22;8528;49.976;11.858;2023-06-19T12:10:41;36.00;42.00
16823;DHT22;8528;49.976;11.858;2023-06-19T12:16:27;37.70;41.90
16823;DHT22;8528;49.976;11.858;2023-06-19T12:18:55;38.40;41.70
16823;DHT22;8528;49.976;11.858;2023-06-19T12:21:22;39.30;39.40
16823;DHT22;8528;49.976;11.858;2023-06-19T12:24:04;39.80;38.80
16823;DHT22;8528;49.976;11.858;2023-06-19T12:26:33;40.00;38.60
16823;DHT22;8528;49.976;11.858;2023-06-19T12:29:04;39.50;39.80
16823;DHT22;8528;49.976;11.858;2023-06-19T12:31:32;38.70;39.40
16823;DHT22;8528;49.976;11.858;2023-06-19T12:33:59;36.50;41.50
16823;DHT22;8528;49.976;11.858;2023-06-19T12:36:39;35.50;43.60
16823;DHT22;8528;49.976;11.858;2023-06-19T12:39:06;34.40;45.50
16823;DHT22;8528;49.976;11.858;2023-06-19T12:41:41;33.60;47.00
16823;DHT22;8528;49.976;11.858;2023-06-19T12:44:08;33.80;47.20
16823;DHT22;8528;49.976;11.858;2023-06-19T12:46:35;34.50;45.70
16823;DHT22;8528;49.976;11.858;2023-06-19T12:49:02;35.90;44.20
16823;DHT22;8528;49.976;11.858;2023-06-19T12:51:29;36.80;42.90
16823;DHT22;8528;49.976;11.858;2023-06-19T12:53:56;38.10;41.30
16823;DHT22;8528;49.976;11.858;2023-06-19T12:56:22;39.10;39.80
16823;DHT22;8528;49.976;11.858;2023-06-19T12:58:50;38.90;39.90
16823;DHT22;8528;49.976;11.858;2023-06-19T13:01:16;38.00;40.40
16823;DHT22;8528;49.976;11.858;2023-06-19T13:03:44;37.20;40.80
16823;DHT22;8528;49.976;11.858;2023-06-19T13:06:11;36.60;42.60
16823;DHT22;8528;49.976;11.858;2023-06-19T13:08:38;35.70;43.20
16823;DHT22;8528;49.976;11.858;2023-06-19T13:11:05;35.20;43.50
16823;DHT22;8528;49.976;11.858;2023-06-19T13:13:32;34.50;44.20
16823;DHT22;8528;49.976;11.858;2023-06-19T13:15:59;33.60;45.70
16823;DHT22;8528;49.976;11.858;2023-06-19T13:18:26;32.90;47.40
16823;DHT22;8528;49.976;11.858;2023-06-19T13:20:53;31.90;47.20
16823;DHT22;8528;49.976;11.858;2023-06-19T13:23:19;31.00;49.90
16823;DHT22;8528;49.976;11.858;2023-06-19T13:25:47;30.60;50.60
16823;DHT22;8528;49.976;11.858;2023-06-19T13:28:13;30.70;49.90
16823;DHT22;8528;49.976;11.858;2023-06-19T13:30:40;31.10;49.80
16823;DHT22;8528;49.976;11.858;2023-06-19T13:33:07;31.20;50.10
16823;DHT22;8528;49.976;11.858;2023-06-19T13:35:35;31.10;49.20
16823;DHT22;8528;49.976;11.858;2023-06-19T13:38:02;31.20;48.90
16823;DHT22;8528;49.976;11.858;2023-06-19T13:40:28;31.30;49.70
16823;DHT22;8528;49.976;11.858;2023-06-19T13:42:55;31.30;50.60
16823;DHT22;8528;49.976;11.858;2023-06-19T13:45:51;31.30;49.40
16823;DHT22;8528;49.976;11.858;2023-06-19T13:48:17;31.00;49.40
16823;DHT22;8528;49.976;11.858;2023-06-19T13:50:44;30.70;50.80
16823;DHT22;8528;49.976;11.858;2023-06-19T13:53:11;30.60;51.90
16823;DHT22;8528;49.976;11.858;2023-06-19T13:55:38;30.70;52.40
16823;DHT22;8528;49.976;11.858;2023-06-19T13:58:05;30.70;51.60
16823;DHT22;8528;49.976;11.858;2023-06-19T14:00:33;30.80;52.20
16823;DHT22;8528;49.976;11.858;2023-06-19T14:03:02;30.60;51.80
16823;DHT22;8528;49.976;11.858;2023-06-19T14:05:30;30.30;52.40
16823;DHT22;8528;49.976;11.858;2023-06-19T14:07:59;29.90;52.50
16823;DHT22;8528;49.976;11.858;2023-06-19T14:10:26;29.60;53.30
16823;DHT22;8528;49.976;11.858;2023-06-19T14:12:53;29.50;54.00
16823;DHT22;8528;49.976;11.858;2023-06-19T14:15:20;29.50;54.40
16823;DHT22;8528;49.976;11.858;2023-06-19T14:17:47;29.50;54.10
16823;DHT22;8528;49.976;11.858;2023-06-19T14:20:24;29.40;54.20
16823;DHT22;8528;49.976;11.858;2023-06-19T14:22:51;29.40;54.70
16823;DHT22;8528;49.976;11.858;2023-06-19T14:25:18;29.30;53.60
16823;DHT22;8528;49.976;11.858;2023-06-19T14:27:45;29.20;54.00
16823;DHT22;8528;49.976;11.858;2023-06-19T14:30:13;29.10;52.50
16823;DHT22;8528;49.976;11.858;2023-06-19T14:32:39;28.80;53.80
16823;DHT22;8528;49.976;11.858;2023-06-19T14:35:07;28.80;54.80
16823;DHT22;8528;49.976;11.858;2023-06-19T14:37:34;28.90;54.60
16823;DHT22;8528;49.976;11.858;2023-06-19T14:40:01;28.90;54.70
16823;DHT22;8528;49.976;11.858;2023-06-19T14:45:36;28.70;55.20
16823;DHT22;8528;49.976;11.858;2023-06-19T14:48:03;28.80;55.10
16823;DHT22;8528;49.976;11.858;2023-06-19T14:50:30;28.80;56.00
16823;DHT22;8528;49.976;11.858;2023-06-19T14:52:57;28.90;56.00
16823;DHT22;8528;49.976;11.858;2023-06-19T14:55:23;28.90;56.30
16823;DHT22;8528;49.976;11.858;2023-06-19T14:57:50;28.90;55.40
16823;DHT22;8528;49.976;11.858;2023-06-19T15:00:17;28.80;56.30
16823;DHT22;8528;49.976;11.858;2023-06-19T15:02:44;28.70;55.50
16823;DHT22;8528;49.976;11.858;2023-06-19T15:05:11;28.70;55.50
16823;DHT22;8528;49.976;11.858;2023-06-19T15:07:38;28.70;56.60
16823;DHT22;8528;49.976;11.858;2023-06-19T15:10:06;28.90;55.80
16823;DHT22;8528;49.976;11.858;2023-06-19T15:12:33;28.90;55.90
16823;DHT22;8528;49.976;11.858;2023-06-19T15:15:01;28.70;55.80
16823;DHT22;8528;49.976;11.858;2023-06-19T15:17:28;28.80;56.40
16823;DHT22;8528;49.976;11.858;2023-06-19T15:19:55;28.90;57.30
16823;DHT22;8528;49.976;11.858;2023-06-19T15:22:22;29.10;56.90
16823;DHT22;8528;49.976;11.858;2023-06-19T15:24:49;29.30;56.40
16823;DHT22;8528;49.976;11.858;2023-06-19T15:27:16;29.40;56.30
16823;DHT22;8528;49.976;11.858;2023-06-19T15:29:43;29.40;56.20
16823;DHT22;8528;49.976;11.858;2023-06-19T15:32:10;29.40;56.50
16823;DHT22;8528;49.976;11.858;2023-06-19T15:34:37;29.30;56.00
16823;DHT22;8528;49.976;11.858;2023-06-19T15:37:04;29.30;55.00
16823;DHT22;8528;49.976;11.858;2023-06-19T15:39:31;29.20;56.40
16823;DHT22;8528;49.976;11.858;2023-06-19T15:41:58;29.30;56.50
16823;DHT22;8528;49.976;11.858;2023-06-19T15:44:25;29.30;57.40
16823;DHT22;8528;49.976;11.858;2023-06-19T15:46:52;29.30;56.80
16823;DHT22;8528;49.976;11.858;2023-06-19T15:49:19;29.30;56.30